Time;durP1;ratioP1;P1;durP2;ratioP2;P2;SDS_P1;SDS_P2;PMS_P1;PMS_P2;Temp;Humidity;BMP_temperature;BMP_pressure;BME280_temperature;BME280_humidity;BME280_pressure;Samples;Min_cycle;Max_cycle;Signal;HPM_P1;HPM_P2
2022/09/03 00:00:19;;;;;;;4.82;1.90;;;;;;;16.68;100.00;101012.78;5035305;28;20041;-63
2022/09/03 00:03:03;;;;;;;6.03;1.50;;;;;;;16.87;100.00;101042.72;5034919;28;20444;-64
2022/09/03 00:05:28;;;;;;;5.03;1.35;;;;;;;16.87;100.00;101048.06;5035234;28;20053;-61
2022/09/03 00:08:16;;;;;;;3.47;1.40;;;;;;;16.56;100.00;100992.19;5029017;28;20034;-64
2022/09/03 00:10:58;;;;;;;1.60;1.33;;;;;;;16.81;100.00;101046.59;5021944;28;20477;-62
2022/09/03 00:13:35;;;;;;;4.43;2.08;;;;;;;16.76;100.00;101040.69;5033482;28;20103;-63
2022/09/03 00:16:08;;;;;;;4.20;1.58;;;;;;;16.40;100.00;100988.63;5033365;28;20156;-62
2022/09/03 00:18:35;;;;;;;2.60;1.70;;;;;;;16.57;100.00;101021.38;5033485;28;20519;-64
2022/09/03 00:21:07;;;;;;;4.90;1.50;;;;;;;16.63;100.00;101036.97;5016843;28;20184;-61
2022/09/03 00:23:40;;;;;;;5.25;2.20;;;;;;;16.61;100.00;101040.63;5033342;28;20029;-63
2022/09/03 00:26:11;;;;;;;3.35;1.67;;;;;;;;;;5033224;28;20030;-60
2022/09/03 00:28:55;;;;;;;2.92;1.70;;;;;;;;;;5034409;28;20025;-64
2022/09/03 00:31:34;;;;;;;3.30;1.55;;;;;;;;;;5034389;28;20029;-61
2022/09/03 00:34:02;;;;;;;1.52;1.42;;;;;;;;;;5034442;28;20041;-60
2022/09/03 00:36:30;;;;;;;2.83;1.63;;;;;;;;;;5032541;28;20377;-63
2022/09/03 00:38:57;;;;;;;3.33;1.65;;;;;;;;;;5033632;28;20029;-61
2022/09/03 00:41:37;;;;;;;1.90;1.55;;;;;;;;;;5033045;28;20037;-63
2022/09/03 00:44:12;;;;;;;5.47;2.08;;;;;;;;;;5032605;28;20057;-60
2022/09/03 00:46:41;;;;;;;2.88;1.80;;;;;;;;;;5029629;28;20112;-64
2022/09/03 00:49:25;;;;;;;3.17;1.70;;;;;;;;;;5013373;28;20045;-64
2022/09/03 00:52:10;;;;;;;2.17;1.80;;;;;;;;;;5014513;28;20035;-60
2022/09/03 00:54:46;;;;;;;6.22;1.95;;;;;;;;;;5013050;28;20035;-62
2022/09/03 00:57:24;;;;;;;4.32;1.50;;;;;;;;;;5014178;28;20029;-61
2022/09/03 01:00:03;;;;;;;4.68;1.70;;;;;;;;;;5014408;28;20022;-61
2022/09/03 01:02:36;;;;;;;3.35;1.67;;;;;;;;;;5012706;28;20062;-60
2022/09/03 01:05:21;;;;;;;4.35;1.60;;;;;;;;;;5014259;28;20030;-60
2022/09/03 01:08:05;;;;;;;1.73;1.63;;;;;;;;;;5014472;28;20065;-60
2022/09/03 01:11:00;;;;;;;2.78;1.60;;;;;;;;;;5012930;28;20041;-61
2022/09/03 01:13:32;;;;;;;1.95;1.55;;;;;;;;;;4994612;28;20082;-60
2022/09/03 01:16:09;;;;;;;2.88;1.73;;;;;;;;;;5014167;28;20072;-63
2022/09/03 01:18:37;;;;;;;3.20;1.70;;;;;;;;;;5012740;28;20052;-61
2022/09/03 01:21:27;;;;;;;2.53;1.70;;;;;;;;;;5014001;28;20040;-60
2022/09/03 01:23:55;;;;;;;2.80;1.83;;;;;;;;;;5012912;28;20040;-63
2022/09/03 01:26:34;;;;;;;2.58;1.70;;;;;;;;;;5014024;28;20049;-62
2022/09/03 01:29:14;;;;;;;5.90;1.77;;;;;;;;;;5013974;28;20030;-61
2022/09/03 01:31:46;;;;;;;2.70;1.50;;;;;;;;;;5013523;28;20133;-59
2022/09/03 01:34:14;;;;;;;5.65;1.85;;;;;;;;;;5024363;28;20104;-60
2022/09/03 01:36:57;;;;;;;1.88;1.50;;;;;;;;;;5033288;28;20036;-60
2022/09/03 01:39:28;;;;;;;3.85;1.65;;;;;;;;;;5025063;28;20515;-63
2022/09/03 01:42:14;;;;;;;3.60;1.63;;;;;;;;;;5032946;28;20030;-65
2022/09/03 01:44:59;;;;;;;3.30;1.70;;;;;;;;;;5032897;28;20037;-62
2022/09/03 01:47:31;;;;;;;3.65;2.05;;;;;;;;;;5032141;28;20041;-61
2022/09/03 01:50:10;;;;;;;4.60;1.85;;;;;;;;;;5032956;28;20056;-60
2022/09/03 01:52:50;;;;;;;2.72;1.63;;;;;;;;;;5032727;28;20546;-63
2022/09/03 01:55:18;;;;;;;2.40;1.58;;;;;;;;;;5033385;28;20079;-61
2022/09/03 01:57:55;;;;;;;1.95;1.75;;;;;;;;;;5033245;28;20362;-63
2022/09/03 02:00:20;;;;;;;7.75;1.70;;;;;;;;;;5033148;28;20037;-62
2022/09/03 02:02:47;;;;;;;3.95;2.05;;;;;;;;;;5032701;28;20061;-64
2022/09/03 02:05:14;;;;;;;1.92;1.42;;;;;;;;;;5032895;28;20037;-61
2022/09/03 02:07:47;;;;;;;6.10;1.60;;;;;;;;;;5033106;28;20036;-62
2022/09/03 02:10:18;;;;;;;2.90;1.65;;;;;;;;;;5033078;28;20376;-60
2022/09/03 02:12:50;;;;;;;3.35;1.65;;;;;;;;;;5032816;28;20038;-61
2022/09/03 02:15:18;;;;;;;3.25;1.85;;;;;;;;;;5032694;28;20044;-61
2022/09/03 02:17:44;;;;;;;5.88;1.88;;;;;;;;;;5032673;28;20132;-61
2022/09/03 02:20:11;;;;;;;3.25;1.77;;;;;;;;;;5032694;28;20135;-62
2022/09/03 02:22:36;;;;;;;4.13;1.65;;;;;;;;;;5032759;28;20120;-62
2022/09/03 02:25:01;;;;;;;2.00;1.77;;;;;;;;;;5031512;28;20539;-63
2022/09/03 02:27:27;;;;;;;4.15;1.73;;;;;;;;;;5032666;28;20041;-63
2022/09/03 02:29:52;;;;;;;3.97;1.50;;;;;;;;;;5028373;28;20112;-61
2022/09/03 02:32:17;;;;;;;3.97;1.40;;;;;;;;;;5043195;28;20047;-61
2022/09/03 02:34:43;;;;;;;4.07;1.50;;;;;;;;;;5025849;28;20367;-65
2022/09/03 02:37:12;;;;;;;2.10;1.52;;;;;;;;;;5030773;28;20180;-61
2022/09/03 02:39:38;;;;;;;2.92;2.20;;;;;;;;;;5031997;28;20124;-61
2022/09/03 02:42:03;;;;;;;6.40;1.90;;;;;;;;;;5032129;28;20513;-63
2022/09/03 02:44:30;;;;;;;2.97;1.60;;;;;;;;;;5032050;28;20033;-61
2022/09/03 02:47:03;;;;;;;3.50;1.60;;;;;;;;;;5030844;28;20468;-62
2022/09/03 02:49:29;;;;;;;5.60;1.73;;;;;;;;;;5030745;28;20033;-64
2022/09/03 02:52:05;;;;;;;2.15;1.42;;;;;;;;;;5032312;28;20044;-62
2022/09/03 02:54:32;;;;;;;3.33;1.50;;;;;;;;;;5030945;28;20432;-61
2022/09/03 02:56:58;;;;;;;8.73;1.50;;;;;;;16.09;nan;101002.69;5032287;28;20393;-63
2022/09/03 02:59:24;;;;;;;4.50;1.65;;;;;;;16.10;nan;101005.28;5031881;28;20026;-62
2022/09/03 03:01:49;;;;;;;2.63;1.65;;;;;;;16.11;nan;101003.47;5032530;28;20045;-61
2022/09/03 03:04:15;;;;;;;3.15;1.40;;;;;;;16.06;nan;100987.78;5030949;28;20073;-62
2022/09/03 03:06:40;;;;;;;3.13;1.70;;;;;;;15.82;nan;100954.53;5030885;28;20034;-62
2022/09/03 03:09:05;;;;;;;2.05;1.70;;;;;;;15.69;nan;100935.75;5030896;28;20511;-63
2022/09/03 03:11:31;;;;;;;3.72;1.65;;;;;;;15.73;nan;100947.06;5031866;28;20041;-64
2022/09/03 03:13:56;;;;;;;3.00;1.67;;;;;;;15.77;nan;100953.91;5032073;28;20052;-63
2022/09/03 03:16:22;;;;;;;6.10;1.73;;;;;;;15.96;nan;100999.81;5014188;28;20037;-67
2022/09/03 03:18:48;;;;;;;5.72;1.83;;;;;;;15.01;nan;100843.75;5031914;28;20045;-62
2022/09/03 03:21:15;;;;;;;2.22;1.75;;;;;;;15.83;nan;100982.81;5032053;28;20476;-63
2022/09/03 03:23:41;;;;;;;4.13;1.70;;;;;;;15.63;nan;100933.41;5028212;28;20030;-64
2022/09/03 03:26:08;;;;;;;4.43;1.67;;;;;;;15.88;nan;100987.88;5029813;28;20038;-65
2022/09/03 03:28:34;;;;;;;3.33;1.55;;;;;;;15.86;nan;100990.59;5031240;28;20041;-64
2022/09/03 03:31:13;;;;;;;3.80;1.67;;;;;;;15.86;nan;100989.75;5015567;28;20033;-63
2022/09/03 03:33:39;;;;;;;2.78;1.77;;;;;;;15.73;nan;100977.09;5030181;28;20033;-61
2022/09/03 03:36:13;;;;;;;3.22;2.05;;;;;;;15.74;nan;101002.72;5030273;28;20049;-63
2022/09/03 03:38:39;;;;;;;3.20;1.98;;;;;;;15.35;nan;100930.44;5031474;28;20085;-62
2022/09/03 03:41:17;;;;;;;5.13;2.13;;;;;;;15.39;nan;100939.94;5030158;28;20484;-65
2022/09/03 03:43:42;;;;;;;2.50;1.52;;;;;;;15.67;nan;100992.50;5030215;28;20037;-65
2022/09/03 03:46:09;;;;;;;1.77;1.52;;;;;;;15.27;nan;100931.72;5010472;28;20041;-62
2022/09/03 03:48:34;;;;;;;2.78;1.90;;;;;;;15.34;nan;100962.31;5024387;28;20044;-64
2022/09/03 03:51:05;;;;;;;3.53;1.90;;;;;;;15.50;nan;101001.28;5031399;28;20033;-61
2022/09/03 03:53:30;;;;;;;;;;;;;;;15.56;nan;100992.16;5031659;28;20477;-64
2022/09/03 03:55:58;;;;;;;5.65;2.05;;;;;;;15.52;nan;100991.47;5046351;28;19924;-61
2022/09/03 03:58:23;;;;;;;2.90;1.70;;;;;;;15.52;nan;100993.28;5031399;28;20560;-61
2022/09/03 04:00:52;;;;;;;3.53;1.77;;;;;;;15.45;nan;100990.03;5030275;28;20116;-60
2022/09/03 04:03:17;;;;;;;6.45;1.85;;;;;;;15.08;nan;100927.34;5014909;28;20050;-62
2022/09/03 04:05:43;;;;;;;4.20;1.90;;;;;;;15.43;nan;100991.91;5031172;28;20362;-64
2022/09/03 04:08:08;;;;;;;1.98;1.77;;;;;;;15.32;nan;100978.31;5030980;28;20361;-61
2022/09/03 04:10:35;;;;;;;5.72;2.03;;;;;;;15.38;nan;101001.03;5033060;28;20034;-63
2022/09/03 04:13:00;;;;;;;4.03;2.25;;;;;;;15.08;nan;100943.25;5034755;28;20037;-62
2022/09/03 04:15:25;;;;;;;3.58;2.20;;;;;;;15.42;nan;101014.03;5033575;28;20025;-67
2022/09/03 04:17:54;;;;;;;3.22;1.73;;;;;;;15.41;nan;100990.25;5028571;28;20148;-64
2022/09/03 04:20:19;;;;;;;3.25;1.90;;;;;;;14.32;nan;100812.75;5033332;28;20449;-63
2022/09/03 04:22:44;;;;;;;1.90;1.50;;;;;;;15.36;nan;100990.47;5034437;28;20080;-61
2022/09/03 04:25:10;;;;;;;2.50;2.15;;;;;;;15.31;nan;100989.84;5034401;28;20388;-64
2022/09/03 04:27:35;;;;;;;3.15;1.77;;;;;;;14.94;nan;100923.66;5035156;28;20045;-59
2022/09/03 04:30:00;;;;;;;3.17;2.03;;;;;;;15.21;nan;100996.53;5034947;28;20037;-61
2022/09/03 04:35:10;;;;;;;4.05;1.70;;;;;;;15.14;nan;100989.81;5034966;28;20111;-61
2022/09/03 04:37:35;;;;;;;3.63;1.50;;;;;;;14.91;nan;100959.13;5034556;28;20045;-62
2022/09/03 04:40:01;;;;;;;3.03;1.70;;;;;;;15.04;nan;100984.09;5034861;28;20078;-61
2022/09/03 04:42:26;;;;;;;4.10;2.05;;;;;;;15.05;nan;100982.31;5033352;28;20374;-62
2022/09/03 04:44:52;;;;;;;2.25;1.90;;;;;;;15.03;nan;100973.59;5033276;28;20503;-61
2022/09/03 04:47:17;;;;;;;5.53;2.00;;;;;;;15.00;nan;100976.38;5016720;28;20033;-60
2022/09/03 04:49:42;;;;;;;2.10;1.77;;;;;;;14.92;nan;100971.44;5029305;28;20041;-61
2022/09/03 04:52:09;;;;;;;3.30;1.80;;;;;;;14.95;nan;100981.03;5020920;28;20354;-63
2022/09/03 04:54:34;;;;;;;1.85;1.75;;;;;;;14.89;nan;100971.56;5014399;28;20492;-61
2022/09/03 04:56:59;;;;;;;5.55;1.98;;;;;;;14.87;nan;100968.16;5014553;28;20042;-60
2022/09/03 04:59:25;;;;;;;3.88;2.20;;;;;;;14.91;nan;100977.69;5014351;28;20564;-62
2022/09/03 05:01:51;;;;;;;9.45;2.10;;;;;;;14.90;nan;100973.31;5013974;28;20042;-60
2022/09/03 05:04:16;;;;;;;4.70;1.92;;;;;;;14.87;nan;100976.09;5029152;28;20049;-66
2022/09/03 05:06:44;;;;;;;1.88;1.67;;;;;;;14.50;nan;100912.56;5014297;28;20540;-62
2022/09/03 05:09:09;;;;;;;3.92;1.98;;;;;;;14.76;nan;100966.94;5013455;28;20042;-63
2022/09/03 05:11:35;;;;;;;1.92;1.75;;;;;;;14.41;nan;100903.25;4996721;28;20042;-65
2022/09/03 05:14:00;;;;;;;5.72;2.00;;;;;;;14.80;nan;100979.97;5012947;28;20109;-65
2022/09/03 05:16:27;;;;;;;5.68;1.98;;;;;;;14.44;nan;100923.44;5012836;28;20038;-63
2022/09/03 05:18:55;;;;;;;5.13;1.80;;;;;;;14.43;nan;100925.22;5014120;28;20512;-63
2022/09/03 05:21:21;;;;;;;4.43;2.40;;;;;;;14.75;nan;100983.78;5013934;28;20497;-64
2022/09/03 05:23:49;;;;;;;3.70;2.10;;;;;;;14.29;nan;100913.53;5012975;28;20036;-62
2022/09/03 05:26:19;;;;;;;2.08;1.85;;;;;;;14.73;nan;100986.50;5012686;28;20045;-63
2022/09/03 05:28:45;;;;;;;2.63;2.10;;;;;;;14.77;nan;100989.88;5014001;28;20117;-62
2022/09/03 05:31:11;;;;;;;3.42;2.03;;;;;;;14.79;nan;100988.00;5013883;28;20115;-62
2022/09/03 05:33:38;;;;;;;4.20;2.20;;;;;;;14.70;nan;100968.09;5013602;28;20416;-61
2022/09/03 05:36:09;;;;;;;2.50;1.85;;;;;;;14.83;nan;100982.47;5012477;28;20066;-61
2022/09/03 05:38:34;;;;;;;6.67;2.33;;;;;;;14.52;nan;100923.94;5013736;28;20080;-63
2022/09/03 05:41:02;;;;;;;6.05;2.33;;;;;;;14.91;nan;100990.94;4996263;28;20273;-63
2022/09/03 05:43:28;;;;;;;3.40;2.10;;;;;;;14.96;nan;100986.28;5012421;28;20125;-60
2022/09/03 05:46:02;;;;;;;3.78;2.03;;;;;;;14.71;nan;100940.66;4997647;28;20480;-65
2022/09/03 05:48:32;;;;;;;2.92;2.08;;;;;;;15.07;nan;100986.59;5011729;28;20136;-61
2022/09/03 05:51:08;;;;;;;4.10;1.77;;;;;;;15.12;nan;100973.97;4996031;28;20029;-64
2022/09/03 05:53:35;;;;;;;2.92;1.67;;;;;;;15.15;nan;100988.88;5013613;28;20045;-65
2022/09/03 05:56:04;;;;;;;4.55;1.83;;;;;;;15.35;nan;100987.91;5028668;28;20030;-62
2022/09/03 05:58:35;;;;;;;4.22;1.85;;;;;;;15.43;nan;100993.69;4995873;28;20036;-62
2022/09/03 06:01:14;;;;;;;3.33;1.88;;;;;;;15.56;nan;101003.63;5013447;28;20030;-61
2022/09/03 06:03:41;;;;;;;3.00;2.08;;;;;;;15.62;nan;101002.47;5011598;28;20081;-64
2022/09/03 06:06:07;;;;;;;3.28;1.95;;;;;;;15.68;nan;100996.84;5012188;28;20044;-61
2022/09/03 06:08:33;;;;;;;5.20;1.90;;;;;;;15.41;nan;100935.41;4995677;28;20432;-60
2022/09/03 06:11:00;;;;;;;4.53;1.90;;;;;;;15.82;nan;100993.50;5013073;28;20060;-64
2022/09/03 06:13:25;;;;;;;5.93;1.90;;;;;;;15.87;nan;101002.09;5011845;28;20473;-60
2022/09/03 06:15:58;;;;;;;3.83;1.83;;;;;;;15.49;nan;100927.97;5012924;28;20069;-64
2022/09/03 06:18:25;;;;;;;2.60;1.92;;;;;;;15.96;nan;101004.28;5013137;28;20038;-61
2022/09/03 06:20:57;;;;;;;3.67;1.90;;;;;;;16.06;nan;101008.16;5016857;28;20044;-62
2022/09/03 06:23:24;;;;;;;5.78;2.10;;;;;;;15.48;nan;100897.06;5041442;28;20061;-60
2022/09/03 06:26:05;;;;;;;3.65;1.80;;;;;;;16.22;nan;101015.25;5028200;28;20065;-66
2022/09/03 06:28:36;;;;;;;2.30;2.00;;;;;;;15.97;nan;100963.50;5014535;28;20447;-63
2022/09/03 06:31:03;;;;;;;2.80;1.80;;;;;;;16.26;nan;101002.66;5032211;28;20030;-64
2022/09/03 06:33:30;;;;;;;3.95;2.17;;;;;;;16.12;nan;100965.34;5031595;28;20124;-62
2022/09/03 06:35:59;;;;;;;2.17;1.90;;;;;;;16.51;nan;101020.81;5031740;28;20520;-61
2022/09/03 06:38:36;;;;;;;6.15;2.08;;;;;;;16.57;nan;101016.06;5029785;28;20036;-63
2022/09/03 06:41:23;;;;;;;5.32;1.90;;;;;;;16.28;nan;100955.63;5031503;28;20116;-63
2022/09/03 06:43:52;;;;;;;4.80;2.40;;;;;;;16.71;nan;101025.91;5031251;28;20484;-65
2022/09/03 06:46:19;;;;;;;3.15;2.00;;;;;;;16.81;nan;101027.97;5026728;28;20048;-61
2022/09/03 06:48:46;;;;;;;4.50;1.88;;;;;;;16.88;nan;101029.38;5010822;28;20124;-62
2022/09/03 06:51:19;;;;;;;5.50;1.80;;;;;;;16.63;nan;100973.19;5020067;28;20037;-65
2022/09/03 06:53:46;;;;;;;4.50;2.08;;;;;;;16.64;nan;100966.91;5027178;28;20037;-62
2022/09/03 06:56:14;;;;;;;2.50;1.83;;;;;;;17.11;nan;101046.69;5028071;28;20033;-67
2022/09/03 06:58:47;;;;;;;3.30;1.90;;;;;;;17.19;nan;101044.47;4998139;28;20060;-66
2022/09/03 07:01:18;;;;;;;5.75;2.22;;;;;;;17.17;nan;101017.09;5031862;28;20040;-62
2022/09/03 07:03:46;;;;;;;3.58;2.05;;;;;;;17.41;nan;101036.13;5031955;28;20483;-63
2022/09/03 07:06:13;;;;;;;2.92;2.00;;;;;;;17.52;nan;101032.84;5032230;28;20616;-61
2022/09/03 07:08:40;;;;;;;2.85;2.30;;;;;;;17.60;nan;101031.47;5032269;28;20038;-65
2022/09/03 07:11:11;;;;;;;3.72;2.10;;;;;;;17.74;nan;101041.34;5031969;28;20034;-65
2022/09/03 07:13:40;;;;;;;2.88;2.03;;;;;;;17.82;nan;101037.28;5032281;28;20037;-62
2022/09/03 07:16:11;;;;;;;3.13;2.17;;;;;;;17.96;nan;101047.09;5030817;28;20388;-62
2022/09/03 07:18:37;;;;;;;1.92;1.55;;;;;;;17.95;nan;101029.38;5032403;28;20098;-63
2022/09/03 07:21:05;;;;;;;3.75;2.00;;;;;;;18.16;nan;101059.22;5032255;28;20520;-63
2022/09/03 07:23:31;;;;;;;4.78;2.38;;;;;;;18.24;nan;101044.47;5031852;28;20117;-63
2022/09/03 07:25:59;;;;;;;3.53;2.28;;;;;;;18.06;nan;100994.13;5031977;28;20076;-63
2022/09/03 07:28:25;;;;;;;2.85;1.88;;;;;;;18.42;nan;101054.03;5014186;28;20029;-64
2022/09/03 07:30:52;;;;;;;2.90;1.83;;;;;;;17.62;nan;100891.19;5026016;28;20045;-62
2022/09/03 07:33:17;;;;;;;3.25;2.50;;;;;;;18.75;nan;101053.78;5028647;28;20124;-61
2022/09/03 07:35:44;;;;;;;2.03;1.80;;;;;;;18.79;nan;101043.78;5030705;28;20167;-67
2022/09/03 07:38:10;;;;;;;3.75;2.00;;;;;;;18.93;nan;101049.97;5030526;28;20040;-63
2022/09/03 07:40:35;;;;;;;6.05;1.73;;;;;;;19.00;nan;101037.09;5030576;28;20069;-61
2022/09/03 07:43:03;;;;;;;3.78;2.20;;;;;;;19.21;nan;101053.50;5030484;28;20126;-62
2022/09/03 07:45:28;;;;;;;5.30;2.08;;;;;;;19.29;nan;101060.09;5033565;28;20061;-62
2022/09/03 07:47:54;;;;;;;2.35;1.95;;;;;;;19.41;nan;101053.13;5034442;28;20547;-64
2022/09/03 07:50:19;;;;;;;4.43;2.03;;;;;;;19.47;nan;101069.56;5035572;28;20108;-61
2022/09/03 07:52:45;;;;;;;2.05;1.85;;;;;;;19.67;nan;101058.44;5035790;28;20408;-61
2022/09/03 07:55:11;;;;;;;2.20;2.00;;;;;;;19.84;nan;101059.13;5017949;28;20038;-61
2022/09/03 07:57:36;;;;;;;4.75;2.10;;;;;;;19.97;nan;101068.03;5033972;28;20528;-62
2022/09/03 08:00:03;;;;;;;6.50;1.90;;;;;;;19.98;nan;101001.13;5034204;28;20056;-64
2022/09/03 08:02:28;;;;;;;2.50;1.95;;;;;;;20.51;nan;101053.59;5033628;28;20054;-64
2022/09/03 08:04:53;;;;;;;6.00;1.67;;;;;;;21.34;nan;101069.94;5017539;28;20216;-64
2022/09/03 08:07:19;;;;;;;4.32;2.90;;;;;;;22.10;nan;101068.59;5035279;28;20037;-63
2022/09/03 08:09:44;;;;;;;4.85;2.00;;;;;;;22.95;nan;101086.06;5035115;28;20063;-64
2022/09/03 08:12:09;;;;;;;4.43;1.83;;;;;;;23.70;nan;101089.72;5017396;28;20064;-62
2022/09/03 08:14:35;;;;;;;2.90;2.05;;;;;;;24.26;nan;101084.97;5035243;28;20037;-62
2022/09/03 08:17:00;;;;;;;3.80;2.40;;;;;;;24.43;nan;101099.69;5033970;28;20041;-65
2022/09/03 08:19:25;;;;;;;4.00;1.73;;;;;;;24.85;nan;101098.66;5033889;28;20069;-61
2022/09/03 08:21:50;;;;;;;5.47;1.80;;;;;;;25.19;nan;101096.50;5033918;28;20497;-64
2022/09/03 08:24:18;;;;;;;3.28;2.42;;;;;;;25.30;nan;101060.56;5034854;28;20041;-63
2022/09/03 08:26:43;;;;;;;3.83;1.90;;;;;;;25.81;nan;101061.19;5023626;28;20060;-61
2022/09/03 08:29:09;;;;;;;4.88;1.80;;;;;;;26.36;nan;101102.78;5034246;28;20469;-61
2022/09/03 08:31:35;;;;;;;3.13;1.77;;;;;;;26.38;nan;101060.31;5026203;28;20112;-61
2022/09/03 08:34:05;;;;;;;5.60;2.67;;;;;;;26.86;nan;101122.31;5033929;28;20066;-61
2022/09/03 08:36:34;;;;;;;6.80;2.13;;;;;;;26.99;nan;101112.03;5029684;28;20034;-63
2022/09/03 08:39:08;;;;;;;3.03;1.92;;;;;;;26.81;nan;101108.41;5033764;28;20030;-64
2022/09/03 08:41:54;;;;;;;2.58;1.95;;;;;;;26.97;nan;101114.00;5032587;28;20033;-61
2022/09/03 08:44:41;;;;;;;2.95;2.03;;;;;;;27.35;nan;101108.41;5030242;28;20041;-62
2022/09/03 08:47:15;;;;;;;4.22;2.33;;;;;;;27.49;nan;101109.81;5032987;28;20029;-62
2022/09/03 08:49:41;;;;;;;4.13;2.53;;;;;;;27.67;nan;101109.84;5031387;28;20018;-61
2022/09/03 08:52:16;;;;;;;4.10;1.80;;;;;;;27.29;nan;101113.59;5034066;28;20037;-61
2022/09/03 08:54:42;;;;;;;5.38;2.28;;;;;;;27.76;nan;101111.59;5033761;28;20385;-63
2022/09/03 08:57:08;;;;;;;2.67;2.10;;;;;;;27.68;nan;101093.44;5032359;28;20588;-64
2022/09/03 08:59:33;;;;;;;5.45;1.77;;;;;;;27.71;nan;101076.06;5032422;28;20044;-62
2022/09/03 09:02:08;;;;;;;7.70;1.95;;;;;;;28.25;nan;101113.81;5032157;28;20030;-62
2022/09/03 09:04:42;;;;;;;2.40;2.00;;;;;;;28.54;nan;101110.81;5028881;28;20068;-63
2022/09/03 09:07:14;;;;;;;6.50;1.85;;;;;;;28.28;nan;101051.22;5028981;28;20493;-64
2022/09/03 09:09:50;;;;;;;1.60;1.40;;;;;;;28.59;nan;101062.44;5032174;28;20026;-64
2022/09/03 09:12:37;;;;;;;3.50;1.95;;;;;;;28.95;nan;101057.75;5032155;28;20029;-65
2022/09/03 09:15:09;;;;;;;5.47;1.80;;;;;;;29.28;nan;101107.53;5032311;28;20029;-63
2022/09/03 09:18:13;;;;;;;4.22;1.85;;;;;;;29.70;nan;101112.91;5015768;28;20057;-63
2022/09/03 09:20:48;;;;;;;4.68;1.77;;;;;;;29.61;nan;101105.78;5033148;28;20101;-61
2022/09/03 09:23:19;;;;;;;10.02;2.28;;;;;;;29.65;nan;101078.16;5032013;28;20526;-62
2022/09/03 09:25:48;;;;;;;5.05;1.77;;;;;;;30.03;nan;101117.41;5017432;28;20033;-62
2022/09/03 09:28:22;;;;;;;4.07;1.83;;;;;;;30.09;nan;101117.56;5032270;28;20033;-63
2022/09/03 09:30:50;;;;;;;7.57;1.77;;;;;;;30.29;nan;101128.13;5032038;28;20370;-61
2022/09/03 09:33:16;;;;;;;3.15;1.85;;;;;;;30.45;nan;101120.84;5035459;28;20562;-63
2022/09/03 09:35:43;;;;;;;3.00;2.15;;;;;;;30.64;nan;101117.75;5031964;28;20083;-64
2022/09/03 09:38:09;;;;;;;3.63;2.10;;;;;;;30.19;nan;101038.66;5032036;28;20026;-62
2022/09/03 09:40:41;;;;;;;3.65;2.05;;;;;;;30.71;nan;101120.63;5032703;28;20030;-63
2022/09/03 09:43:09;;;;;;;7.28;2.00;;;;;;;30.44;nan;101119.16;5032860;28;20041;-62
2022/09/03 09:45:36;;;;;;;4.13;1.58;;;;;;;29.93;nan;101010.88;5032103;28;20433;-62
2022/09/03 09:48:10;;;;;;;3.50;1.63;;;;;;;30.92;nan;101110.03;5032250;28;20121;-61
2022/09/03 09:50:35;;;;;;;1.65;1.55;;;;;;;31.21;nan;101112.16;5031980;28;20029;-63
2022/09/03 09:53:13;;;;;;;4.55;1.70;;;;;;;31.44;nan;101118.53;5033323;28;20469;-60
2022/09/03 09:55:56;;;;;;;5.13;2.28;;;;;;;31.14;nan;101078.56;5032013;28;20026;-61
2022/09/03 09:58:24;;;;;;;2.00;1.52;;;;;;;31.40;nan;101070.09;5031922;28;20033;-63
2022/09/03 10:01:11;;;;;;;4.72;2.03;;;;;;;31.92;nan;101117.41;5031759;28;20029;-62
2022/09/03 10:03:40;;;;;;;3.83;1.75;;;;;;;32.00;nan;101057.44;5032599;28;20068;-65
2022/09/03 10:09:07;;;;;;;2.95;1.80;;;;;;;31.74;nan;101108.69;5031530;28;20492;-65
2022/09/03 10:11:35;;;;;;;2.10;1.60;;;;;;;30.96;nan;101099.69;5032573;28;20033;-66
2022/09/03 10:14:02;;;;;;;4.38;1.65;;;;;;;30.99;nan;101091.19;5015518;28;20037;-65
2022/09/03 10:16:35;;;;;;;4.97;1.55;;;;;;;31.49;nan;101102.56;5031612;28;20068;-64
2022/09/03 10:19:18;;;;;;;4.53;2.13;;;;;;;31.64;nan;101102.66;5031589;28;20021;-63
2022/09/03 10:22:05;;;;;;;2.90;1.63;;;;;;;31.64;nan;101092.59;5026026;28;20112;-65
2022/09/03 10:24:53;;;;;;;4.25;1.92;;;;;;;30.88;nan;101086.94;5031578;28;20084;-63
2022/09/03 10:27:19;;;;;;;3.28;2.13;;;;;;;30.97;nan;101101.41;4999269;28;20468;-65
2022/09/03 10:29:45;;;;;;;3.47;1.90;;;;;;;30.55;nan;101056.31;5032260;28;20049;-63
2022/09/03 10:32:41;;;;;;;3.22;1.60;;;;;;;30.29;nan;101099.09;5032019;28;20086;-65
2022/09/03 10:35:28;;;;;;;2.45;1.42;;;;;;;30.32;nan;101104.19;5032187;28;20558;-66
2022/09/03 10:38:09;;;;;;;4.00;1.67;;;;;;;29.33;nan;101013.00;5032005;28;20507;-65
2022/09/03 10:40:41;;;;;;;4.85;2.40;;;;;;;29.29;nan;101003.50;5030724;28;20079;-65
2022/09/03 10:43:19;;;;;;;2.63;1.80;;;;;;;29.82;nan;101098.91;5030674;28;20039;-66
2022/09/03 10:46:02;;;;;;;1.80;1.65;;;;;;;29.38;nan;101052.16;5032171;28;20057;-64
2022/09/03 10:48:52;;;;;;;4.95;1.67;;;;;;;30.38;nan;101098.09;5032071;28;20060;-65
2022/09/03 10:51:35;;;;;;;3.65;1.63;;;;;;;30.75;nan;101092.09;5011734;28;20030;-63
2022/09/03 10:54:35;;;;;;;2.75;1.80;;;;;;;30.64;nan;101096.03;5021182;28;20035;-64
2022/09/03 10:57:00;;;;;;;2.47;1.67;;;;;;;30.64;nan;101104.19;5031985;28;20025;-67
2022/09/03 10:59:44;;;;;;;6.10;2.07;;;;;;;30.81;nan;101085.09;5029884;28;20079;-64
2022/09/03 11:02:30;;;;;;;6.60;1.95;;;;;;;30.93;nan;101095.47;5030146;28;20292;-66
2022/09/03 11:04:59;;;;;;;5.47;3.00;;;;;;;31.19;nan;101106.91;5032101;28;20464;-65
2022/09/03 11:07:31;;;;;;;7.93;2.10;;;;;;;31.71;nan;101101.75;5031861;28;20029;-64
2022/09/03 11:10:10;;;;;;;4.25;2.10;;;;;;;32.87;nan;101085.91;5030644;28;20037;-64
2022/09/03 11:12:41;;;;;;;5.60;2.03;;;;;;;33.14;nan;101057.16;5031789;28;20102;-65
2022/09/03 11:15:50;;;;;;;4.20;2.00;;;;;;;34.15;nan;101085.19;5030281;28;20132;-67
2022/09/03 11:18:21;;;;;;;4.28;2.47;;;;;;;34.82;nan;101092.88;5013340;28;20082;-65
2022/09/03 11:20:48;;;;;;;4.93;2.10;;;;;;;34.88;nan;101095.63;5034550;28;20029;-64
2022/09/03 11:23:15;;;;;;;4.15;2.15;;;;;;;34.62;nan;101043.53;5034757;28;20026;-66
2022/09/03 11:25:45;;;;;;;5.78;2.13;;;;;;;35.35;nan;101078.44;5034517;28;20037;-67
2022/09/03 11:28:45;;;;;;;3.92;2.17;;;;;;;35.46;nan;101041.41;5013174;28;20030;-64
2022/09/03 11:31:30;;;;;;;5.95;3.53;;;;;;;35.93;nan;101089.78;5012940;28;20128;-64
2022/09/03 11:34:00;;;;;;;3.22;2.20;;;;;;;35.54;nan;101095.97;5032449;28;20050;-65
2022/09/03 11:36:34;;;;;;;2.40;1.65;;;;;;;35.87;nan;101096.09;5017589;28;20035;-65
2022/09/03 11:39:01;;;;;;;3.65;2.03;;;;;;;35.81;nan;101066.78;5039192;28;20029;-63
2022/09/03 11:41:34;;;;;;;2.20;1.88;;;;;;;35.93;nan;101051.44;5034232;28;20087;-63
2022/09/03 11:44:11;;;;;;;4.63;1.95;;;;;;;36.34;nan;101087.69;5033921;28;20052;-64
2022/09/03 11:46:39;;;;;;;12.48;10.98;;;;;;;36.45;nan;101089.84;5048457;28;20037;-65
2022/09/03 11:49:12;;;;;;;2.95;1.90;;;;;;;36.71;nan;101088.13;5038285;28;20026;-66
2022/09/03 11:51:40;;;;;;;4.05;2.58;;;;;;;37.20;nan;101077.44;5017926;28;20029;-64
2022/09/03 11:54:14;;;;;;;3.42;2.42;;;;;;;37.09;nan;101056.19;5034961;28;20032;-62
2022/09/03 11:56:41;;;;;;;7.50;2.08;;;;;;;37.29;nan;101081.63;5034859;28;20190;-63
2022/09/03 11:59:12;;;;;;;3.83;1.73;;;;;;;37.59;nan;101077.28;5034878;28;20033;-66
2022/09/03 12:01:39;;;;;;;3.38;1.77;;;;;;;37.84;nan;101084.72;5018850;28;20026;-65
2022/09/03 12:04:05;;;;;;;6.45;2.10;;;;;;;37.88;nan;101080.47;5033689;28;20065;-65
2022/09/03 12:06:47;;;;;;;3.85;1.90;;;;;;;37.61;nan;101044.94;5034161;28;20033;-66
2022/09/03 12:09:21;;;;;;;3.15;1.85;;;;;;;37.05;nan;101080.47;5035162;28;20026;-63
2022/09/03 12:11:58;;;;;;;3.35;1.83;;;;;;;36.76;nan;101074.59;5033758;28;20037;-65
2022/09/03 12:15:02;;;;;;;5.75;1.90;;;;;;;36.66;nan;101042.97;5035002;28;20046;-65
2022/09/03 12:20:42;;;;;;;3.70;1.90;;;;;;;37.83;nan;101075.63;5048185;28;20455;-66
2022/09/03 12:23:13;;;;;;;2.22;2.03;;;;;;;38.43;nan;101068.66;5034904;28;20033;-67
2022/09/03 12:25:46;;;;;;;4.35;2.50;;;;;;;38.18;nan;101029.31;5034925;28;20048;-66
2022/09/03 12:28:16;;;;;;;5.05;1.70;;;;;;;38.51;nan;101078.53;5033406;28;20409;-66
2022/09/03 12:30:41;;;;;;;4.13;2.08;;;;;;;38.21;nan;101070.94;5032981;28;20384;-65
2022/09/03 12:33:09;;;;;;;3.35;2.70;;;;;;;38.06;nan;101031.97;5033479;28;20120;-64
2022/09/03 12:35:35;;;;;;;3.17;2.22;;;;;;;38.59;nan;101059.81;5033697;28;20091;-65
2022/09/03 12:38:00;;;;;;;4.78;1.95;;;;;;;38.01;nan;100932.84;5034704;28;20485;-65